Taipei Songshan Airport
RCSS : now visible

Airfield :











YOU CAN JOIN US ON...

 
LOGIN :

Register | Disclaimer

   EN    FR    IT 

 









Legend :    VFR   Marginal VFR   IFR   Intensive IFR   Very Intensive IFR
Visi :
Ceiling :
>= 8 km
>= 3000ft
5 to 8 km
1000 to 3000 ft
1500m to 5 km
500 to 1000 ft
800 to 1500m
200 to 500 ft
< 800m
< 200 ft
Symbols :   Thunderstorms  Fog  Heavy snow  Heavy precipitations  Wind > 20 kt







- Airport Elevation : 18 ft
- IATA code : TSA


RCSS - Taipei Songshan

CURRENT METAR :
  • 192000Z 09003KT 3200 BR FEW005 SCT007 23/22 Q1008 NOSIG RMK A2978

EXPIRED METARs :
  • 191900Z 09005KT 3500 -RA BR FEW006 SCT025 BKN120 23/22 Q1008 NOSIG RMK A2979
  • 191800Z VRB01KT 3500 -RA BR FEW006 SCT020 BKN045 24/22 Q1009 NOSIG RMK A2980

TAF TAF RCSS
Valid from the 19 at 18:00 until the 20 at 18:00 UTC


191700Z 1918/2018 29005KT 6000 FEW008 SCT018 BKN032
TEMPO 1918/1924 08005KT 3000 BR SCT006 BKN016 BKN030
TEMPO 2006/2012 09008KT 3200 SHRA SCT007 FEW012CB BKN017 BKN035
TEMPO 2014/2018 10005KT 5000 RA FEW010 BKN018 BKN040
RCAA FIR / Asia



MET'MAP, your aeronautical weather chart ! - Copyright ORBIFLY December 2007 - Disclaimer

ORBIFLY MET'MAP TEAM :

Programming & Development : Alexandra Zaïnal
Concept & Development : Baudouin d'Aumeries
Co-Development & Prog : Marc-Olivier Méhu
Technical & hardware support : Manuel Goepfert

Contact : metmap@orbifly.com




SOURCES & CREDITS :

   NOAA       Earth
Advisory